Portada
METAR-TAF:

METAR-TAF

Aeropuertos :

Omaha, Nebraska, Estados Unidos

latitud: 41-11-45N, longitud: 096-06-44W, altitud: 320 m

Observación

El informe se hizo hace 19 minutos, a las 07:55 UTC
Viento calma
Temperatura 15°C
Humedad 88%
Presión 1024 hPa
Visibilidad: 16.1 km
Cielo nuboso a una altura de 6000 ft
Cielo cubierto a una altura de 7000 ft

METAR: KMLE 310755Z AUTO 00000KT 10SM BKN060 OVC070 15/13 A3023 RMK AO2 LTG DSNT W T01540128

Hora: 03:14 (08:14 UTC)


TAF: falta

Observaciones y pronósticos meteorológicos de más de 4000 aeropuertos (mensajes METAR y TAF).

Los puntos amarillos y rojos representan las estaciones disponibles.

Ponga el ratón en el punto deseado para ver el nombre de la estación.

Haga clic para ver las observaciones y los pronósticos meteorológicos.

Para cambiar el mapa : haga clic en los botones verdes con una cruz de color negro para hacer un zoom, en el botón verde con un guión para alejar o en las flechas verdes para mapas adyacentes.


METAR-TAF: